»·PEaware :: N615LJ KWHP-KBFL

N615LJ :: KWHP-KBFL

FLIGHT INFORMATION

Flight Status: Arrived
Operator: Privately registered:
United States
More flights under this callsign
Pilot: Shane T. (23547)
Aircraft: CIRRUS SR-22 TURBO
(S22T)
More flights by this aircraft type
Origin: KWHP Whiteman
United States
Destination: KBFL Meadows
United States
More flights between these airports :: More routes between these airports
Route: WHP1 VNY SAUGS LHS FASTO2
File this flight plan on PilotEdge
Remarks:
Altitude:
(Current/Filed)
8,000ft
Speed:
(Current/Filed)
180kts
Departed: 05-Nov-23 05:35 PM
Arrived: 05-Nov-23 06:12 PM
Distance/Time
Traveled:
77nm/0:37
Distance/Time
To Go:
Arrived

Flight Plot

Page will automatically refresh every two minutes.

Flight plan parsing failed; only flown route is shown


Map Options




Map Legend


Flown Route
Filed Route
Departure Airport
Arrival Airport
Navaid (VOR, NDB)
Fix

Horizontal Profiles

Position Reports

Time Latitude Longitude Heading Altitude Ground
Speed
05-Nov-23 17:15 34.262927 -118.416308 138 1001ft 0kts
05-Nov-23 17:16 34.262927 -118.416308 138 1001ft 0kts
05-Nov-23 17:17 34.262927 -118.416308 138 1001ft 0kts
05-Nov-23 17:18 34.262927 -118.416308 138 1001ft 0kts
05-Nov-23 17:19 34.262927 -118.416308 138 1001ft 0kts
05-Nov-23 17:20 34.262927 -118.416308 138 1001ft 0kts
05-Nov-23 17:21 34.262927 -118.416308 138 1001ft 0kts
05-Nov-23 17:22 34.262927 -118.416308 138 1001ft 0kts
05-Nov-23 17:23 34.262927 -118.416308 138 1001ft 0kts
05-Nov-23 17:24 34.262927 -118.416308 138 1001ft 0kts
05-Nov-23 17:25 34.262927 -118.416308 138 1001ft 0kts
05-Nov-23 17:26 34.262899 -118.416151 70 1001ft 5kts
05-Nov-23 17:27 34.263625 -118.417244 274 1000ft 0kts
05-Nov-23 17:28 34.263625 -118.417244 274 1000ft 0kts
05-Nov-23 17:29 34.263625 -118.417244 274 1000ft 0kts
05-Nov-23 17:30 34.263625 -118.417245 273 1000ft 0kts
05-Nov-23 17:31 34.263478 -118.417852 135 998ft 0kts
05-Nov-23 17:32 34.261356 -118.415606 139 999ft 33kts
05-Nov-23 17:33 34.255215 -118.409154 40 968ft 2kts
05-Nov-23 17:34 34.265637 -118.420207 318 1326ft 114kts
05-Nov-23 17:35 34.271714 -118.458768 268 2877ft 126kts
05-Nov-23 17:36 34.273159 -118.505812 268 4331ft 139kts
05-Nov-23 17:37 34.258483 -118.542650 159 5032ft 158kts
05-Nov-23 17:38 34.230771 -118.500668 113 4989ft 159kts
05-Nov-23 17:39 34.263724 -118.489599 322 5005ft 181kts
05-Nov-23 17:40 34.309548 -118.517379 356 5190ft 171kts
05-Nov-23 17:41 34.357656 -118.524464 356 5907ft 168kts
05-Nov-23 17:42 34.404929 -118.517626 15 6627ft 164kts
05-Nov-23 17:43 34.449777 -118.506400 15 7346ft 162kts
05-Nov-23 17:44 34.486587 -118.478571 41 8006ft 157kts
05-Nov-23 17:45 34.533169 -118.475589 328 8043ft 187kts
05-Nov-23 17:46 34.575074 -118.512579 328 8024ft 178kts
05-Nov-23 17:47 34.614560 -118.547885 337 8657ft 160kts
05-Nov-23 17:48 34.658577 -118.565961 345 8832ft 171kts
05-Nov-23 17:49 34.701723 -118.595910 315 8849ft 185kts
05-Nov-23 17:50 34.742524 -118.637502 316 8877ft 192kts
05-Nov-23 17:51 34.785160 -118.680933 315 8905ft 191kts
05-Nov-23 17:52 34.823901 -118.727243 318 8921ft 180kts
05-Nov-23 17:53 34.857901 -118.772157 317 8932ft 176kts
05-Nov-23 17:54 34.892708 -118.818811 316 8928ft 176kts
05-Nov-23 17:55 34.925628 -118.863083 316 8895ft 162kts
05-Nov-23 17:56 34.956564 -118.904730 316 8864ft 156kts
05-Nov-23 17:57 34.995135 -118.892141 32 8078ft 142kts
05-Nov-23 17:58 35.030165 -118.863260 23 8100ft 151kts
05-Nov-23 17:59 35.074210 -118.861451 0 7322ft 142kts
05-Nov-23 18:00 35.114593 -118.861447 359 6537ft 149kts
05-Nov-23 18:01 35.163288 -118.861437 359 5561ft 172kts
05-Nov-23 18:02 35.212505 -118.861429 358 4553ft 165kts
05-Nov-23 18:03 35.259756 -118.861427 358 3609ft 159kts
05-Nov-23 18:04 35.292820 -118.886429 315 3576ft 122kts
05-Nov-23 18:05 35.320540 -118.919633 315 3509ft 140kts
05-Nov-23 18:06 35.347782 -118.952378 316 2800ft 123kts
05-Nov-23 18:07 35.372088 -118.981668 315 2172ft 127kts
05-Nov-23 18:09 35.392116 -119.005809 314 1624ft 94kts
05-Nov-23 18:10 35.409742 -119.027084 313 1131ft 82kts
05-Nov-23 18:11 35.426020 -119.046738 312 687ft 78kts
05-Nov-23 18:12 35.437523 -119.060611 314 491ft 30kts
05-Nov-23 18:13 35.440551 -119.062047 130 499ft 17kts
05-Nov-23 18:14 35.437501 -119.057151 72 497ft 0kts
05-Nov-23 18:15 35.437501 -119.057151 72 497ft 0kts
05-Nov-23 18:16 35.437501 -119.057151 72 497ft 0kts
05-Nov-23 18:17 35.437501 -119.057151 72 497ft 0kts
05-Nov-23 18:18 35.437501 -119.057151 72 497ft 0kts
05-Nov-23 18:19 35.437501 -119.057151 72 497ft 0kts
05-Nov-23 18:20 35.437501 -119.057151 72 497ft 0kts
05-Nov-23 18:21 35.437501 -119.057151 72 497ft 0kts

Navigation Log

Ident Type
Flight plan parsing failed, navigation log unavailable